sensor_id;sensor_type;location;lat;lon;timestamp;pressure;altitude;pressure_sealevel;temperature;humidity
75972;BME280;64651;47.540;19.088;2023-04-08T00:04:34;100708.94;;;4.85;82.00
75972;BME280;64651;47.540;19.088;2023-04-08T00:09:37;100692.56;;;4.73;82.32
75972;BME280;64651;47.540;19.088;2023-04-08T00:14:40;100691.84;;;4.78;83.14
75972;BME280;64651;47.540;19.088;2023-04-08T00:19:42;100696.38;;;4.84;83.24
75972;BME280;64651;47.540;19.088;2023-04-08T00:24:45;100697.56;;;4.88;83.35
75972;BME280;64651;47.540;19.088;2023-04-08T00:29:47;100698.28;;;4.95;83.53
75972;BME280;64651;47.540;19.088;2023-04-08T00:34:50;100699.94;;;4.96;83.37
75972;BME280;64651;47.540;19.088;2023-04-08T00:39:52;100704.94;;;4.99;83.20
75972;BME280;64651;47.540;19.088;2023-04-08T00:44:55;100701.97;;;5.01;82.90
75972;BME280;64651;47.540;19.088;2023-04-08T00:49:57;100705.63;;;5.06;83.34
75972;BME280;64651;47.540;19.088;2023-04-08T00:55:00;100697.84;;;5.10;83.50
75972;BME280;64651;47.540;19.088;2023-04-08T01:00:03;100707.69;;;5.11;83.24
75972;BME280;64651;47.540;19.088;2023-04-08T01:05:29;100707.69;;;5.11;83.29
75972;BME280;64651;47.540;19.088;2023-04-08T01:10:36;100704.69;;;5.12;82.99
75972;BME280;64651;47.540;19.088;2023-04-08T01:15:41;100704.34;;;5.09;83.12
75972;BME280;64651;47.540;19.088;2023-04-08T01:20:45;100707.78;;;5.04;83.47
75972;BME280;64651;47.540;19.088;2023-04-08T01:25:52;100700.44;;;5.05;83.62
75972;BME280;64651;47.540;19.088;2023-04-08T01:30:56;100702.78;;;5.01;84.29
75972;BME280;64651;47.540;19.088;2023-04-08T01:36:00;100709.31;;;5.00;84.14
75972;BME280;64651;47.540;19.088;2023-04-08T01:41:04;100717.47;;;5.00;83.99
75972;BME280;64651;47.540;19.088;2023-04-08T01:46:07;100711.91;;;4.95;84.32
75972;BME280;64651;47.540;19.088;2023-04-08T01:51:11;100697.31;;;4.89;85.03
75972;BME280;64651;47.540;19.088;2023-04-08T01:56:14;100702.31;;;4.93;84.80
75972;BME280;64651;47.540;19.088;2023-04-08T02:01:20;100699.22;;;4.89;84.87
75972;BME280;64651;47.540;19.088;2023-04-08T02:06:25;100702.22;;;4.87;85.44
75972;BME280;64651;47.540;19.088;2023-04-08T02:11:28;100700.75;;;4.73;87.34
75972;BME280;64651;47.540;19.088;2023-04-08T02:22:05;100702.06;;;4.82;86.39
75972;BME280;64651;47.540;19.088;2023-04-08T02:27:10;100697.81;;;4.75;88.11
75972;BME280;64651;47.540;19.088;2023-04-08T02:32:14;100696.47;;;4.77;87.27
75972;BME280;64651;47.540;19.088;2023-04-08T02:37:17;100694.69;;;4.71;86.58
75972;BME280;64651;47.540;19.088;2023-04-08T02:42:20;100694.34;;;4.68;86.87
75972;BME280;64651;47.540;19.088;2023-04-08T02:47:22;100696.69;;;4.64;86.62
75972;BME280;64651;47.540;19.088;2023-04-08T02:52:24;100699.19;;;4.66;86.46
75972;BME280;64651;47.540;19.088;2023-04-08T02:57:27;100694.22;;;4.63;86.49
75972;BME280;64651;47.540;19.088;2023-04-08T03:02:29;100695.50;;;4.60;86.34
75972;BME280;64651;47.540;19.088;2023-04-08T03:07:32;100700.59;;;4.57;86.77
75972;BME280;64651;47.540;19.088;2023-04-08T03:12:34;100698.94;;;4.56;87.21
75972;BME280;64651;47.540;19.088;2023-04-08T03:17:36;100703.91;;;4.59;87.23
75972;BME280;64651;47.540;19.088;2023-04-08T03:22:39;100703.06;;;4.58;87.27
75972;BME280;64651;47.540;19.088;2023-04-08T03:27:41;100707.31;;;4.54;87.23
75972;BME280;64651;47.540;19.088;2023-04-08T03:32:43;100712.69;;;4.61;87.42
75972;BME280;64651;47.540;19.088;2023-04-08T03:37:45;100710.19;;;4.59;87.83
75972;BME280;64651;47.540;19.088;2023-04-08T03:42:48;100714.81;;;4.59;87.67
75972;BME280;64651;47.540;19.088;2023-04-08T03:47:50;100712.06;;;4.59;87.51
75972;BME280;64651;47.540;19.088;2023-04-08T03:52:52;100711.25;;;4.58;87.73
75972;BME280;64651;47.540;19.088;2023-04-08T03:57:54;100729.97;;;4.55;87.42
75972;BME280;64651;47.540;19.088;2023-04-08T04:02:57;100733.13;;;4.52;87.57
75972;BME280;64651;47.540;19.088;2023-04-08T04:07:59;100735.84;;;4.52;87.29
75972;BME280;64651;47.540;19.088;2023-04-08T04:13:01;100742.22;;;4.45;87.39
75972;BME280;64651;47.540;19.088;2023-04-08T04:18:04;100739.50;;;4.45;87.59
75972;BME280;64651;47.540;19.088;2023-04-08T04:23:06;100750.09;;;4.54;87.42
75972;BME280;64651;47.540;19.088;2023-04-08T04:28:08;100749.03;;;4.55;87.25
75972;BME280;64651;47.540;19.088;2023-04-08T04:33:11;100751.28;;;4.58;87.07
75972;BME280;64651;47.540;19.088;2023-04-08T04:38:13;100752.13;;;4.58;87.09
75972;BME280;64651;47.540;19.088;2023-04-08T04:43:15;100754.28;;;4.68;86.72
75972;BME280;64651;47.540;19.088;2023-04-08T04:48:17;100760.09;;;4.71;86.51
75972;BME280;64651;47.540;19.088;2023-04-08T04:53:20;100756.66;;;4.76;86.03
75972;BME280;64651;47.540;19.088;2023-04-08T04:58:22;100760.38;;;4.81;85.69
75972;BME280;64651;47.540;19.088;2023-04-08T05:03:24;100761.19;;;4.82;85.46
75972;BME280;64651;47.540;19.088;2023-04-08T05:08:27;100766.78;;;4.87;85.41
75972;BME280;64651;47.540;19.088;2023-04-08T05:13:31;100757.06;;;4.91;85.42
75972;BME280;64651;47.540;19.088;2023-04-08T05:18:33;100763.13;;;4.93;85.48
75972;BME280;64651;47.540;19.088;2023-04-08T05:23:35;100769.88;;;4.90;85.66
75972;BME280;64651;47.540;19.088;2023-04-08T05:28:37;100783.41;;;4.97;85.46
75972;BME280;64651;47.540;19.088;2023-04-08T05:33:40;100786.63;;;5.06;85.23
75972;BME280;64651;47.540;19.088;2023-04-08T05:38:42;100788.75;;;5.04;84.71
75972;BME280;64651;47.540;19.088;2023-04-08T05:43:45;100795.28;;;5.14;84.51
75972;BME280;64651;47.540;19.088;2023-04-08T05:48:47;100799.34;;;5.23;84.21
75972;BME280;64651;47.540;19.088;2023-04-08T05:53:50;100796.28;;;5.31;83.75
75972;BME280;64651;47.540;19.088;2023-04-08T05:58:52;100796.87;;;5.45;83.39
75972;BME280;64651;47.540;19.088;2023-04-08T06:03:54;100797.38;;;5.54;82.84
75972;BME280;64651;47.540;19.088;2023-04-08T06:08:58;100804.62;;;5.48;82.63
75972;BME280;64651;47.540;19.088;2023-04-08T06:14:00;100811.13;;;5.47;82.14
75972;BME280;64651;47.540;19.088;2023-04-08T06:19:02;100814.44;;;5.49;82.02
75972;BME280;64651;47.540;19.088;2023-04-08T06:24:04;100819.53;;;5.46;81.72
75972;BME280;64651;47.540;19.088;2023-04-08T06:29:07;100811.13;;;5.47;81.54
75972;BME280;64651;47.540;19.088;2023-04-08T06:34:09;100818.38;;;5.65;81.24
75972;BME280;64651;47.540;19.088;2023-04-08T06:39:11;100823.72;;;5.60;81.02
75972;BME280;64651;47.540;19.088;2023-04-08T06:44:14;100830.25;;;5.59;81.98
75972;BME280;64651;47.540;19.088;2023-04-08T06:49:16;100829.91;;;5.67;81.44
75972;BME280;64651;47.540;19.088;2023-04-08T06:54:18;100834.03;;;5.81;80.54
75972;BME280;64651;47.540;19.088;2023-04-08T06:59:21;100842.84;;;5.83;80.23
75972;BME280;64651;47.540;19.088;2023-04-08T07:04:23;100844.00;;;5.76;81.06
75972;BME280;64651;47.540;19.088;2023-04-08T07:09:25;100839.50;;;5.81;80.91
75972;BME280;64651;47.540;19.088;2023-04-08T07:14:28;100847.34;;;6.12;79.62
75972;BME280;64651;47.540;19.088;2023-04-08T07:19:31;100839.97;;;6.25;78.79
75972;BME280;64651;47.540;19.088;2023-04-08T07:24:33;100847.34;;;6.12;79.21
75972;BME280;64651;47.540;19.088;2023-04-08T07:29:35;100853.44;;;6.03;79.85
75972;BME280;64651;47.540;19.088;2023-04-08T07:34:37;100861.97;;;5.95;79.69
75972;BME280;64651;47.540;19.088;2023-04-08T07:39:40;100874.34;;;5.97;79.30
75972;BME280;64651;47.540;19.088;2023-04-08T07:44:42;100867.78;;;6.10;78.92
75972;BME280;64651;47.540;19.088;2023-04-08T07:49:47;100885.94;;;6.16;78.87
75972;BME280;64651;47.540;19.088;2023-04-08T07:54:50;100890.44;;;6.22;78.85
75972;BME280;64651;47.540;19.088;2023-04-08T07:59:52;100897.84;;;6.22;78.53
75972;BME280;64651;47.540;19.088;2023-04-08T08:04:54;100902.09;;;6.18;78.82
75972;BME280;64651;47.540;19.088;2023-04-08T08:09:57;100899.62;;;6.28;79.09
75972;BME280;64651;47.540;19.088;2023-04-08T08:14:59;100898.53;;;6.17;79.29
75972;BME280;64651;47.540;19.088;2023-04-08T08:20:01;100904.81;;;6.18;79.63
75972;BME280;64651;47.540;19.088;2023-04-08T08:25:05;100908.03;;;6.26;79.85
75972;BME280;64651;47.540;19.088;2023-04-08T08:30:08;100913.03;;;6.29;79.47
75972;BME280;64651;47.540;19.088;2023-04-08T08:35:11;100910.75;;;6.49;78.53
75972;BME280;64651;47.540;19.088;2023-04-08T08:40:13;100905.13;;;6.68;78.26
75972;BME280;64651;47.540;19.088;2023-04-08T08:45:18;100917.69;;;6.80;77.32
75972;BME280;64651;47.540;19.088;2023-04-08T08:50:20;100921.06;;;6.59;77.72
75972;BME280;64651;47.540;19.088;2023-04-08T08:55:23;100928.44;;;6.59;78.31
75972;BME280;64651;47.540;19.088;2023-04-08T09:00:41;100925.97;;;6.57;77.32
75972;BME280;64651;47.540;19.088;2023-04-08T09:05:55;100927.09;;;6.73;77.07
75972;BME280;64651;47.540;19.088;2023-04-08T09:16:16;100937.16;;;7.24;75.46
75972;BME280;64651;47.540;19.088;2023-04-08T09:21:22;100942.28;;;7.20;75.39
75972;BME280;64651;47.540;19.088;2023-04-08T09:26:25;100949.97;;;7.07;75.13
75972;BME280;64651;47.540;19.088;2023-04-08T09:31:32;100956.78;;;6.92;76.10
75972;BME280;64651;47.540;19.088;2023-04-08T09:36:35;100952.63;;;7.30;75.40
75972;BME280;64651;47.540;19.088;2023-04-08T09:41:38;100964.97;;;7.32;74.32
75972;BME280;64651;47.540;19.088;2023-04-08T09:51:58;100963.25;;;7.15;74.07
75972;BME280;64651;47.540;19.088;2023-04-08T09:57:15;100958.84;;;7.70;73.07
75972;BME280;64651;47.540;19.088;2023-04-08T10:02:24;100956.78;;;7.78;72.35
75972;BME280;64651;47.540;19.088;2023-04-08T10:07:31;100965.87;;;7.66;73.33
75972;BME280;64651;47.540;19.088;2023-04-08T10:12:33;100970.50;;;7.49;72.60
75972;BME280;64651;47.540;19.088;2023-04-08T10:17:36;100961.63;;;7.59;71.44
75972;BME280;64651;47.540;19.088;2023-04-08T10:22:45;100971.69;;;7.70;71.93
75972;BME280;64651;47.540;19.088;2023-04-08T10:27:48;100971.22;;;8.06;71.77
75972;BME280;64651;47.540;19.088;2023-04-08T10:32:51;100966.41;;;8.13;70.24
75972;BME280;64651;47.540;19.088;2023-04-08T10:37:53;100967.06;;;8.54;68.87
75972;BME280;64651;47.540;19.088;2023-04-08T10:42:58;100962.81;;;8.63;68.54
75972;BME280;64651;47.540;19.088;2023-04-08T10:48:23;100961.44;;;8.10;68.85
75972;BME280;64651;47.540;19.088;2023-04-08T10:53:27;100965.44;;;8.75;68.85
75972;BME280;64651;47.540;19.088;2023-04-08T10:58:30;100966.97;;;8.66;68.62
75972;BME280;64651;47.540;19.088;2023-04-08T11:03:33;100966.91;;;8.27;69.54
75972;BME280;64651;47.540;19.088;2023-04-08T11:08:37;100967.22;;;8.86;68.09
75972;BME280;64651;47.540;19.088;2023-04-08T11:13:41;100963.53;;;9.19;67.41
75972;BME280;64651;47.540;19.088;2023-04-08T11:18:54;100966.75;;;8.89;66.72
75972;BME280;64651;47.540;19.088;2023-04-08T11:23:57;100978.16;;;8.81;67.60
75972;BME280;64651;47.540;19.088;2023-04-08T11:28:59;100966.13;;;8.65;68.02
75972;BME280;64651;47.540;19.088;2023-04-08T11:34:03;100968.41;;;8.90;66.71
75972;BME280;64651;47.540;19.088;2023-04-08T11:39:06;100968.31;;;8.85;65.38
75972;BME280;64651;47.540;19.088;2023-04-08T11:44:09;100968.25;;;8.80;64.73
75972;BME280;64651;47.540;19.088;2023-04-08T11:49:11;100971.84;;;9.02;64.61
75972;BME280;64651;47.540;19.088;2023-04-08T11:54:25;100973.25;;;8.83;66.03
75972;BME280;64651;47.540;19.088;2023-04-08T11:59:28;100977.84;;;8.77;65.52
75972;BME280;64651;47.540;19.088;2023-04-08T12:04:30;100974.91;;;8.45;66.15
75972;BME280;64651;47.540;19.088;2023-04-08T12:09:33;100973.81;;;9.07;64.49
75972;BME280;64651;47.540;19.088;2023-04-08T12:14:35;100972.34;;;9.21;64.68
75972;BME280;64651;47.540;19.088;2023-04-08T12:19:37;100964.12;;;8.61;66.03
75972;BME280;64651;47.540;19.088;2023-04-08T12:24:39;100972.41;;;8.82;65.73
75972;BME280;64651;47.540;19.088;2023-04-08T12:29:42;100964.31;;;9.14;64.35
75972;BME280;64651;47.540;19.088;2023-04-08T12:34:46;100959.94;;;9.67;63.93
75972;BME280;64651;47.540;19.088;2023-04-08T12:39:49;100963.09;;;10.49;61.11
75972;BME280;64651;47.540;19.088;2023-04-08T12:44:53;100954.88;;;11.02;58.76
75972;BME280;64651;47.540;19.088;2023-04-08T12:49:56;100962.66;;;11.25;58.27
75972;BME280;64651;47.540;19.088;2023-04-08T12:54:58;100961.88;;;10.67;58.95
75972;BME280;64651;47.540;19.088;2023-04-08T13:00:00;100955.91;;;10.43;59.07
75972;BME280;64651;47.540;19.088;2023-04-08T13:05:02;100952.75;;;10.25;60.57
75972;BME280;64651;47.540;19.088;2023-04-08T13:10:06;100960.81;;;9.46;61.62
75972;BME280;64651;47.540;19.088;2023-04-08T13:15:09;100958.13;;;10.09;61.24
75972;BME280;64651;47.540;19.088;2023-04-08T13:20:11;100966.78;;;10.23;59.49
75972;BME280;64651;47.540;19.088;2023-04-08T13:25:13;100958.22;;;9.88;59.55
75972;BME280;64651;47.540;19.088;2023-04-08T13:30:17;100945.16;;;10.37;59.60
75972;BME280;64651;47.540;19.088;2023-04-08T13:35:19;100950.56;;;10.27;59.21
75972;BME280;64651;47.540;19.088;2023-04-08T13:40:21;100946.69;;;10.18;59.52
75972;BME280;64651;47.540;19.088;2023-04-08T13:45:24;100949.03;;;9.23;63.90
75972;BME280;64651;47.540;19.088;2023-04-08T13:50:26;100945.66;;;8.73;65.04
75972;BME280;64651;47.540;19.088;2023-04-08T13:55:28;100954.47;;;8.96;64.55
75972;BME280;64651;47.540;19.088;2023-04-08T14:00:31;100942.75;;;9.01;64.65
75972;BME280;64651;47.540;19.088;2023-04-08T14:05:33;100949.13;;;9.55;62.72
75972;BME280;64651;47.540;19.088;2023-04-08T14:10:35;100955.09;;;9.25;63.44
75972;BME280;64651;47.540;19.088;2023-04-08T14:15:38;100945.47;;;9.50;63.14
75972;BME280;64651;47.540;19.088;2023-04-08T14:20:40;100949.41;;;9.32;63.61
75972;BME280;64651;47.540;19.088;2023-04-08T14:25:42;100954.28;;;9.25;63.20
75972;BME280;64651;47.540;19.088;2023-04-08T14:30:45;100954.12;;;9.36;62.90
75972;BME280;64651;47.540;19.088;2023-04-08T14:35:48;100955.16;;;9.30;61.21
75972;BME280;64651;47.540;19.088;2023-04-08T14:40:50;100953.78;;;9.55;61.21
75972;BME280;64651;47.540;19.088;2023-04-08T14:45:53;100956.69;;;9.43;60.82
75972;BME280;64651;47.540;19.088;2023-04-08T14:50:56;100951.87;;;9.07;62.12
75972;BME280;64651;47.540;19.088;2023-04-08T14:55:58;100954.22;;;8.98;62.84
75972;BME280;64651;47.540;19.088;2023-04-08T15:01:01;100950.94;;;9.23;61.34
75972;BME280;64651;47.540;19.088;2023-04-08T15:06:03;100955.37;;;9.02;61.72
75972;BME280;64651;47.540;19.088;2023-04-08T15:11:05;100950.97;;;9.01;60.76
75972;BME280;64651;47.540;19.088;2023-04-08T15:16:09;100950.66;;;8.76;62.10
75972;BME280;64651;47.540;19.088;2023-04-08T15:21:11;100951.25;;;8.61;62.17
75972;BME280;64651;47.540;19.088;2023-04-08T15:26:13;100950.81;;;8.69;62.59
75972;BME280;64651;47.540;19.088;2023-04-08T15:31:16;100949.31;;;8.40;64.88
75972;BME280;64651;47.540;19.088;2023-04-08T15:36:18;100947.84;;;8.54;64.77
75972;BME280;64651;47.540;19.088;2023-04-08T15:41:21;100960.38;;;8.67;63.39
75972;BME280;64651;47.540;19.088;2023-04-08T15:46:23;100958.66;;;8.61;63.85
75972;BME280;64651;47.540;19.088;2023-04-08T15:51:25;100963.78;;;8.35;65.05
75972;BME280;64651;47.540;19.088;2023-04-08T15:56:28;100972.28;;;8.05;65.95
75972;BME280;64651;47.540;19.088;2023-04-08T16:01:30;100972.03;;;7.73;68.92
75972;BME280;64651;47.540;19.088;2023-04-08T16:06:34;100978.91;;;7.59;70.64
75972;BME280;64651;47.540;19.088;2023-04-08T16:11:36;100980.06;;;7.63;70.94
75972;BME280;64651;47.540;19.088;2023-04-08T16:16:38;100985.63;;;7.68;71.50
75972;BME280;64651;47.540;19.088;2023-04-08T16:21:41;100985.94;;;7.55;72.06
75972;BME280;64651;47.540;19.088;2023-04-08T16:26:44;100997.97;;;7.54;71.49
75972;BME280;64651;47.540;19.088;2023-04-08T16:31:46;101005.44;;;7.30;71.49
75972;BME280;64651;47.540;19.088;2023-04-08T16:36:48;101002.84;;;7.24;71.66
75972;BME280;64651;47.540;19.088;2023-04-08T16:41:52;101006.19;;;7.14;72.87
75972;BME280;64651;47.540;19.088;2023-04-08T16:46:56;101007.44;;;7.07;73.66
75972;BME280;64651;47.540;19.088;2023-04-08T16:51:58;101024.22;;;6.99;74.46
75972;BME280;64651;47.540;19.088;2023-04-08T16:57:01;101020.63;;;6.98;75.17
75972;BME280;64651;47.540;19.088;2023-04-08T17:02:03;101021.81;;;6.90;76.03
75972;BME280;64651;47.540;19.088;2023-04-08T17:07:05;101029.81;;;6.80;76.24
75972;BME280;64651;47.540;19.088;2023-04-08T17:12:09;101032.91;;;6.72;77.59
75972;BME280;64651;47.540;19.088;2023-04-08T17:17:12;101037.53;;;6.60;78.36
75972;BME280;64651;47.540;19.088;2023-04-08T17:22:14;101042.41;;;6.46;78.22
75972;BME280;64651;47.540;19.088;2023-04-08T17:27:17;101035.97;;;6.18;83.78
75972;BME280;64651;47.540;19.088;2023-04-08T17:32:19;101048.78;;;6.17;84.20
75972;BME280;64651;47.540;19.088;2023-04-08T17:37:21;101062.31;;;6.12;84.36
75972;BME280;64651;47.540;19.088;2023-04-08T17:42:24;101051.78;;;6.16;82.94
75972;BME280;64651;47.540;19.088;2023-04-08T17:47:27;101061.50;;;6.11;83.05
75972;BME280;64651;47.540;19.088;2023-04-08T17:52:30;101061.94;;;5.97;82.49
75972;BME280;64651;47.540;19.088;2023-04-08T17:57:33;101068.50;;;5.78;82.97
75972;BME280;64651;47.540;19.088;2023-04-08T18:02:35;101065.25;;;5.69;82.45
75972;BME280;64651;47.540;19.088;2023-04-08T18:07:39;101076.50;;;5.61;82.86
75972;BME280;64651;47.540;19.088;2023-04-08T18:12:41;101080.72;;;5.57;82.35
75972;BME280;64651;47.540;19.088;2023-04-08T18:17:43;101078.66;;;5.70;81.57
75972;BME280;64651;47.540;19.088;2023-04-08T18:22:46;101085.88;;;5.65;81.42
75972;BME280;64651;47.540;19.088;2023-04-08T18:27:49;101091.44;;;5.58;81.05
75972;BME280;64651;47.540;19.088;2023-04-08T18:32:51;101093.31;;;5.58;80.85
75972;BME280;64651;47.540;19.088;2023-04-08T18:37:53;101099.25;;;5.55;81.16
75972;BME280;64651;47.540;19.088;2023-04-08T18:42:57;101096.97;;;5.52;81.39
75972;BME280;64651;47.540;19.088;2023-04-08T18:48:03;101117.44;;;5.61;81.05
75972;BME280;64651;47.540;19.088;2023-04-08T18:53:05;101113.34;;;5.52;81.41
75972;BME280;64651;47.540;19.088;2023-04-08T18:58:07;101115.00;;;5.53;81.07
75972;BME280;64651;47.540;19.088;2023-04-08T19:03:10;101118.66;;;5.47;81.16
75972;BME280;64651;47.540;19.088;2023-04-08T19:08:12;101114.13;;;5.41;81.39
75972;BME280;64651;47.540;19.088;2023-04-08T19:13:14;101123.22;;;5.35;81.08
75972;BME280;64651;47.540;19.088;2023-04-08T19:18:17;101122.31;;;5.41;81.30
75972;BME280;64651;47.540;19.088;2023-04-08T19:23:19;101126.09;;;5.40;81.12
75972;BME280;64651;47.540;19.088;2023-04-08T19:28:21;101123.56;;;5.38;81.58
75972;BME280;64651;47.540;19.088;2023-04-08T19:33:24;101134.12;;;5.35;81.52
75972;BME280;64651;47.540;19.088;2023-04-08T19:38:28;101129.66;;;5.40;81.33
75972;BME280;64651;47.540;19.088;2023-04-08T19:43:30;101130.19;;;5.49;81.25
75972;BME280;64651;47.540;19.088;2023-04-08T19:48:32;101134.03;;;5.59;80.74
75972;BME280;64651;47.540;19.088;2023-04-08T19:53:35;101139.88;;;5.63;80.47
75972;BME280;64651;47.540;19.088;2023-04-08T19:58:37;101140.91;;;5.62;80.39
75972;BME280;64651;47.540;19.088;2023-04-08T20:03:40;101140.56;;;5.58;79.66
75972;BME280;64651;47.540;19.088;2023-04-08T20:08:53;101137.59;;;5.60;79.28
75972;BME280;64651;47.540;19.088;2023-04-08T20:13:55;101140.19;;;5.55;79.54
75972;BME280;64651;47.540;19.088;2023-04-08T20:18:58;101141.34;;;5.47;79.92
75972;BME280;64651;47.540;19.088;2023-04-08T20:24:00;101140.72;;;5.45;80.54
75972;BME280;64651;47.540;19.088;2023-04-08T20:29:02;101142.31;;;5.35;81.33
75972;BME280;64651;47.540;19.088;2023-04-08T20:34:04;101132.53;;;5.27;82.12
75972;BME280;64651;47.540;19.088;2023-04-08T20:39:10;101145.34;;;5.26;82.57
75972;BME280;64651;47.540;19.088;2023-04-08T20:44:12;101147.47;;;5.24;nan
75972;BME280;64651;47.540;19.088;2023-04-08T20:49:14;101136.84;;;5.16;82.73
75972;BME280;64651;47.540;19.088;2023-04-08T20:54:17;101146.16;;;5.09;83.27
75972;BME280;64651;47.540;19.088;2023-04-08T20:59:19;101146.38;;;5.07;83.66
75972;BME280;64651;47.540;19.088;2023-04-08T21:04:21;101150.62;;;5.03;83.69
75972;BME280;64651;47.540;19.088;2023-04-08T21:09:25;101151.81;;;5.07;83.55
75972;BME280;64651;47.540;19.088;2023-04-08T21:14:27;101147.53;;;5.18;83.33
75972;BME280;64651;47.540;19.088;2023-04-08T21:19:32;101157.38;;;5.19;83.19
75972;BME280;64651;47.540;19.088;2023-04-08T21:24:34;101150.78;;;5.26;82.90
75972;BME280;64651;47.540;19.088;2023-04-08T21:29:37;101156.72;;;5.23;82.40
75972;BME280;64651;47.540;19.088;2023-04-08T21:34:39;101155.47;;;5.19;83.08
75972;BME280;64651;47.540;19.088;2023-04-08T21:39:42;101165.13;;;5.22;83.49
75972;BME280;64651;47.540;19.088;2023-04-08T21:44:44;101160.22;;;5.30;83.86
75972;BME280;64651;47.540;19.088;2023-04-08T21:49:47;101161.41;;;5.35;83.11
75972;BME280;64651;47.540;19.088;2023-04-08T21:54:51;101155.41;;;5.44;82.40
75972;BME280;64651;47.540;19.088;2023-04-08T21:59:53;101153.75;;;5.43;82.24
75972;BME280;64651;47.540;19.088;2023-04-08T22:04:55;101162.31;;;5.47;82.68
75972;BME280;64651;47.540;19.088;2023-04-08T22:09:59;101157.56;;;5.42;82.93
75972;BME280;64651;47.540;19.088;2023-04-08T22:15:03;101160.50;;;5.41;83.12
75972;BME280;64651;47.540;19.088;2023-04-08T22:20:05;101160.94;;;5.38;83.39
75972;BME280;64651;47.540;19.088;2023-04-08T22:25:08;101156.16;;;5.33;83.71
75972;BME280;64651;47.540;19.088;2023-04-08T22:30:10;101153.44;;;5.33;82.97
75972;BME280;64651;47.540;19.088;2023-04-08T22:35:13;101159.31;;;5.37;82.52
75972;BME280;64651;47.540;19.088;2023-04-08T22:40:15;101163.09;;;5.36;82.57
75972;BME280;64651;47.540;19.088;2023-04-08T22:45:17;101159.31;;;5.37;82.90
75972;BME280;64651;47.540;19.088;2023-04-08T22:50:20;101159.75;;;5.34;83.29
75972;BME280;64651;47.540;19.088;2023-04-08T22:55:24;101153.22;;;5.35;83.46
75972;BME280;64651;47.540;19.088;2023-04-08T23:00:27;101159.59;;;5.28;83.70
75972;BME280;64651;47.540;19.088;2023-04-08T23:05:30;101156.94;;;5.22;84.29
75972;BME280;64651;47.540;19.088;2023-04-08T23:10:32;101158.78;;;5.03;84.73
75972;BME280;64651;47.540;19.088;2023-04-08T23:15:34;101166.25;;;4.89;85.38
75972;BME280;64651;47.540;19.088;2023-04-08T23:20:37;101163.59;;;4.83;85.74
75972;BME280;64651;47.540;19.088;2023-04-08T23:25:39;101164.59;;;4.88;85.93
75972;BME280;64651;47.540;19.088;2023-04-08T23:30:41;101175.44;;;4.95;85.99
75972;BME280;64651;47.540;19.088;2023-04-08T23:35:43;101160.75;;;4.96;86.05
75972;BME280;64651;47.540;19.088;2023-04-08T23:40:45;101168.87;;;5.03;86.05
75972;BME280;64651;47.540;19.088;2023-04-08T23:45:48;101158.09;;;5.08;85.68
75972;BME280;64651;47.540;19.088;2023-04-08T23:50:51;101160.84;;;5.08;85.46
75972;BME280;64651;47.540;19.088;2023-04-08T23:55:53;101156.78;;;5.17;85.33
